Time;durP1;ratioP1;P1;durP2;ratioP2;P2;SDS_P1;SDS_P2;PMS_P1;PMS_P2;Temp;Humidity;BMP_temperature;BMP_pressure;BME280_temperature;BME280_humidity;BME280_pressure;Samples;Min_cycle;Max_cycle;Signal;HPM_P1;HPM_P2
2021/06/03 00:00:20;;;;;;;8.48;7.15;;;;;;;17.23;74.26;99141.97;3630141;39;20103;-61
2021/06/03 00:02:49;;;;;;;10.73;7.47;;;;;;;17.25;74.54;99136.38;3630252;39;20046;-60
2021/06/03 00:05:19;;;;;;;9.55;6.90;;;;;;;17.21;74.60;99143.22;3630364;39;20051;-61
2021/06/03 00:07:47;;;;;;;8.27;7.43;;;;;;;17.30;74.47;99139.19;3630516;39;20050;-61
2021/06/03 00:10:16;;;;;;;7.30;6.60;;;;;;;17.31;74.27;99140.84;3630335;39;20425;-62
2021/06/03 00:12:43;;;;;;;7.70;6.03;;;;;;;17.30;73.88;99147.19;3630056;39;20057;-62
2021/06/03 00:15:14;;;;;;;8.27;7.28;;;;;;;17.32;74.07;99153.16;3620664;39;20239;-61
2021/06/03 00:17:43;;;;;;;7.30;6.55;;;;;;;17.40;73.82;99149.34;3629762;39;20074;-62
2021/06/03 00:20:14;;;;;;;8.15;6.90;;;;;;;17.47;73.37;99156.22;3630153;39;20054;-59
2021/06/03 00:22:41;;;;;;;7.18;6.35;;;;;;;17.46;73.45;99153.75;3630225;39;20111;-60
2021/06/03 00:25:10;;;;;;;8.43;6.80;;;;;;;17.34;73.88;99156.38;3630332;39;20076;-60
2021/06/03 00:27:37;;;;;;;8.18;7.38;;;;;;;17.33;73.40;99158.25;3630384;39;20115;-62
2021/06/03 00:30:06;;;;;;;13.30;7.18;;;;;;;17.27;73.74;99151.16;3630260;39;20315;-59
2021/06/03 00:32:35;;;;;;;8.10;7.30;;;;;;;17.26;73.74;99149.50;3630063;39;20247;-60
2021/06/03 00:35:04;;;;;;;10.75;8.07;;;;;;;17.24;74.31;99151.59;3630122;39;20306;-60
2021/06/03 00:37:31;;;;;;;7.40;6.53;;;;;;;17.24;74.31;99148.13;3629744;39;20037;-60
2021/06/03 00:39:58;;;;;;;8.10;6.57;;;;;;;17.20;74.15;99152.28;3629759;39;20034;-60
2021/06/03 00:42:26;;;;;;;8.38;6.88;;;;;;;17.22;74.09;99145.66;3632911;39;20316;-60
2021/06/03 00:44:53;;;;;;;7.38;6.68;;;;;;;17.21;73.94;99156.59;3633944;39;20323;-60
2021/06/03 00:47:21;;;;;;;8.68;6.63;;;;;;;17.24;73.58;99154.28;3633949;39;20340;-60
2021/06/03 00:49:49;;;;;;;8.57;6.28;;;;;;;17.24;73.50;99154.28;3624201;39;20050;-60
2021/06/03 00:52:17;;;;;;;8.90;6.90;;;;;;;17.23;73.37;99151.84;3630590;39;20407;-60
2021/06/03 00:54:46;;;;;;;8.32;7.50;;;;;;;17.19;73.47;99148.81;3620775;39;20051;-60
2021/06/03 00:57:13;;;;;;;10.85;7.32;;;;;;;17.04;73.48;99154.53;3629880;39;20055;-62
2021/06/03 00:59:41;;;;;;;9.80;7.72;;;;;;;16.97;73.89;99156.47;3620394;39;20403;-60
2021/06/03 01:02:08;;;;;;;8.95;7.57;;;;;;;16.80;74.49;99158.16;3620397;39;20054;-61
2021/06/03 01:04:38;;;;;;;10.27;8.93;;;;;;;16.77;74.46;99158.59;3620098;39;20054;-60
2021/06/03 01:07:07;;;;;;;8.77;7.95;;;;;;;16.63;74.58;99157.91;3619952;39;20055;-60
2021/06/03 01:09:41;;;;;;;9.65;8.00;;;;;;;16.57;75.02;99159.63;3619999;39;20054;-60
2021/06/03 01:12:15;;;;;;;8.27;7.32;;;;;;;16.54;75.56;99164.59;3629968;39;20038;-61
2021/06/03 01:14:48;;;;;;;10.32;8.13;;;;;;;16.61;75.58;99167.97;3620521;39;20107;-61
2021/06/03 01:17:17;;;;;;;8.75;7.90;;;;;;;16.64;75.48;99158.72;3619886;39;20042;-61
2021/06/03 01:19:46;;;;;;;12.07;8.48;;;;;;;16.65;75.12;99160.34;3629906;39;20042;-61
2021/06/03 01:22:18;;;;;;;8.00;7.22;;;;;;;16.72;75.24;99169.91;3629895;39;20479;-61
2021/06/03 01:24:54;;;;;;;10.60;8.82;;;;;;;16.78;74.42;99169.06;3620269;39;20043;-61
2021/06/03 01:27:26;;;;;;;9.88;8.05;;;;;;;16.74;75.11;99162.53;3619982;39;20046;-61
2021/06/03 01:29:59;;;;;;;8.98;8.07;;;;;;;16.77;74.98;99169.25;3620258;39;20023;-59
2021/06/03 01:32:28;;;;;;;9.30;8.00;;;;;;;16.83;74.12;99171.88;3620180;39;20055;-60
2021/06/03 01:34:58;;;;;;;8.48;7.55;;;;;;;16.87;74.12;99169.56;3629830;39;20049;-60
2021/06/03 01:37:26;;;;;;;8.13;7.43;;;;;;;16.88;73.97;99175.72;3630242;39;20054;-60
2021/06/03 01:39:58;;;;;;;9.35;8.45;;;;;;;16.88;74.40;99178.38;3634850;39;20043;-61
2021/06/03 01:42:27;;;;;;;8.13;7.32;;;;;;;16.86;74.68;99181.28;3624582;39;20053;-60
2021/06/03 01:44:55;;;;;;;12.07;8.13;;;;;;;16.88;74.38;99173.03;3624603;39;20047;-60
2021/06/03 01:47:22;;;;;;;10.88;9.68;;;;;;;16.86;74.83;99177.78;3633636;39;20336;-61
2021/06/03 01:49:53;;;;;;;10.07;8.48;;;;;;;16.66;74.38;99178.81;3633846;39;20078;-60
2021/06/03 01:52:21;;;;;;;10.52;9.40;;;;;;;16.54;75.19;99191.28;3629662;39;20312;-60
2021/06/03 01:54:49;;;;;;;11.35;8.57;;;;;;;16.56;74.53;99181.19;3629620;39;20057;-60
2021/06/03 01:57:18;;;;;;;8.63;7.75;;;;;;;16.59;74.64;99186.88;3619760;39;20123;-60
2021/06/03 02:00:07;;;;;;;8.80;7.90;;;;;;;16.63;74.53;99191.78;3620831;39;20166;-60
2021/06/03 02:02:45;;;;;;;8.25;7.55;;;;;;;16.58;74.48;99193.28;3629469;39;20383;-59
2021/06/03 02:05:16;;;;;;;9.27;8.35;;;;;;;16.56;74.59;99191.84;3620210;39;20045;-60
2021/06/03 02:07:44;;;;;;;10.20;7.72;;;;;;;16.48;74.25;99194.81;3623025;39;20074;-60
2021/06/03 02:10:14;;;;;;;10.45;8.90;;;;;;;16.43;74.44;99192.81;3636425;39;20407;-60
2021/06/03 02:12:47;;;;;;;10.18;8.93;;;;;;;16.28;74.74;99195.00;3626316;39;20054;-60
2021/06/03 02:15:16;;;;;;;9.63;8.52;;;;;;;16.14;75.41;99193.50;3622805;39;20051;-61
2021/06/03 02:17:47;;;;;;;9.45;8.45;;;;;;;16.21;75.56;99195.09;3628831;39;20043;-61
2021/06/03 02:20:18;;;;;;;9.30;7.88;;;;;;;16.24;75.26;99191.97;3629610;39;20042;-61
2021/06/03 02:22:52;;;;;;;8.35;7.47;;;;;;;16.23;75.53;99187.66;3619870;39;20043;-61
2021/06/03 02:25:22;;;;;;;8.73;6.55;;;;;;;16.29;75.25;99188.66;3619384;39;20086;-62
2021/06/03 02:27:52;;;;;;;8.70;7.50;;;;;;;16.30;74.64;99191.09;3663596;22;20390;-65
2021/06/03 02:30:23;;;;;;;11.07;7.13;;;;;;;16.33;74.54;99184.50;3619963;39;20051;-66
2021/06/03 02:32:52;;;;;;;8.73;7.90;;;;;;;16.17;74.44;99198.41;3629472;39;20057;-65
2021/06/03 02:35:22;;;;;;;10.88;8.20;;;;;;;15.90;74.89;99200.47;3619613;39;20082;-66
2021/06/03 02:37:51;;;;;;;8.68;7.47;;;;;;;15.85;75.62;99206.47;3619280;39;20062;-65
2021/06/03 02:40:23;;;;;;;9.15;8.25;;;;;;;15.87;75.15;99201.72;3629353;39;20055;-65
2021/06/03 02:42:53;;;;;;;10.57;8.00;;;;;;;15.81;75.24;99199.94;3619875;39;20043;-66
2021/06/03 02:45:24;;;;;;;10.55;8.82;;;;;;;15.72;75.85;99203.91;3619705;39;20389;-66
2021/06/03 02:47:53;;;;;;;9.93;8.82;;;;;;;15.69;76.58;99199.81;3628648;39;20465;-66
2021/06/03 02:50:24;;;;;;;9.77;8.75;;;;;;;15.70;76.42;99201.44;3629062;39;20058;-65
2021/06/03 02:52:56;;;;;;;10.70;9.73;;;;;;;15.67;77.05;99199.19;3619330;39;20103;-65
2021/06/03 02:55:27;;;;;;;10.52;8.77;;;;;;;15.64;77.05;99204.13;3619340;39;20099;-66
2021/06/03 02:58:00;;;;;;;9.77;8.85;;;;;;;15.63;77.59;99200.63;3618992;39;20422;-65
2021/06/03 03:00:35;;;;;;;9.00;8.10;;;;;;;15.66;77.24;99204.75;3619506;39;20054;-66
2021/06/03 03:03:08;;;;;;;8.48;7.68;;;;;;;15.70;77.71;99214.75;3619232;39;20416;-64
2021/06/03 03:05:37;;;;;;;9.55;8.45;;;;;;;15.73;77.44;99214.34;3628939;39;20035;-66
2021/06/03 03:08:06;;;;;;;8.38;7.65;;;;;;;15.75;77.26;99209.59;3628764;39;20068;-65
2021/06/03 03:10:36;;;;;;;9.40;8.60;;;;;;;15.75;77.22;99211.44;3619515;39;20347;-65
2021/06/03 03:13:05;;;;;;;8.50;7.63;;;;;;;15.72;77.13;99212.72;3630373;39;20372;-66
2021/06/03 03:15:35;;;;;;;8.88;8.00;;;;;;;15.67;77.03;99215.19;3621052;39;20387;-65
2021/06/03 03:18:02;;;;;;;9.00;8.25;;;;;;;15.58;77.66;99221.78;3620683;39;20055;-65
2021/06/03 03:20:32;;;;;;;7.93;7.28;;;;;;;15.58;77.22;99219.13;3620920;39;20333;-65
2021/06/03 03:22:59;;;;;;;12.00;10.82;;;;;;;15.59;76.99;99210.09;3630592;39;20052;-65
2021/06/03 03:25:29;;;;;;;9.30;8.50;;;;;;;15.56;76.94;99216.69;3630729;39;20027;-65
2021/06/03 03:28:04;;;;;;;10.40;7.82;;;;;;;15.56;77.83;99211.34;3630381;39;20050;-65
2021/06/03 03:30:41;;;;;;;10.05;8.00;;;;;;;15.59;77.76;99212.75;3630414;39;20062;-65
2021/06/03 03:33:13;;;;;;;11.20;10.20;;;;;;;15.54;77.58;99220.56;3630389;39;20027;-65
2021/06/03 03:35:45;;;;;;;8.82;7.97;;;;;;;15.48;78.02;99218.78;3620524;39;20388;-65
2021/06/03 03:38:13;;;;;;;8.32;7.63;;;;;;;15.49;78.34;99221.22;3621805;39;20043;-66
2021/06/03 03:40:40;;;;;;;10.70;9.68;;;;;;;15.54;78.34;99229.38;3633055;39;20050;-65
2021/06/03 03:43:08;;;;;;;9.13;8.25;;;;;;;15.62;78.38;99225.66;3632678;39;20142;-65
2021/06/03 03:45:37;;;;;;;9.40;8.50;;;;;;;15.74;77.16;99228.47;3622776;39;20038;-64
2021/06/03 03:48:05;;;;;;;9.82;8.88;;;;;;;15.74;77.13;99236.47;3629956;39;20043;-66
2021/06/03 03:50:35;;;;;;;9.85;9.05;;;;;;;15.68;77.34;99235.50;3630380;39;20050;-66
2021/06/03 03:53:03;;;;;;;8.63;7.45;;;;;;;15.66;78.13;99232.22;3620720;39;20387;-65
2021/06/03 03:55:31;;;;;;;9.63;8.73;;;;;;;15.72;77.83;99243.88;3630204;39;20033;-64
2021/06/03 03:57:59;;;;;;;9.50;8.45;;;;;;;15.73;77.86;99237.50;3620585;39;20079;-64
2021/06/03 04:00:29;;;;;;;8.18;7.47;;;;;;;15.74;77.93;99239.13;3630289;39;20051;-65
2021/06/03 04:03:09;;;;;;;9.85;8.95;;;;;;;15.74;77.86;99237.28;3620579;39;20030;-65
2021/06/03 04:05:38;;;;;;;8.77;8.02;;;;;;;15.81;78.11;99239.91;3630128;39;20049;-65
2021/06/03 04:08:11;;;;;;;8.40;7.40;;;;;;;15.84;77.44;99239.50;3629959;39;20027;-64
2021/06/03 04:10:39;;;;;;;13.00;8.23;;;;;;;15.89;77.66;99237.00;3620747;39;20078;-64
2021/06/03 04:13:07;;;;;;;8.15;7.35;;;;;;;15.98;77.61;99234.88;3620825;39;20050;-64
2021/06/03 04:15:40;;;;;;;9.32;8.43;;;;;;;16.01;77.69;99235.25;3622177;39;20395;-65
2021/06/03 04:18:11;;;;;;;8.85;7.82;;;;;;;16.07;77.54;99237.03;3620447;39;20055;-65
2021/06/03 04:20:38;;;;;;;8.40;7.70;;;;;;;16.13;77.10;99243.38;3630127;39;20046;-65
2021/06/03 04:23:06;;;;;;;8.18;7.38;;;;;;;16.09;76.87;99237.66;3620492;39;20427;-64
2021/06/03 04:25:36;;;;;;;8.15;7.25;;;;;;;16.16;76.99;99247.44;3620664;39;20038;-65
2021/06/03 04:28:05;;;;;;;11.77;10.65;;;;;;;16.31;76.83;99239.94;3630438;39;20504;-65
2021/06/03 04:30:34;;;;;;;9.30;8.40;;;;;;;16.36;76.87;99245.41;3630745;39;20054;-65
2021/06/03 04:33:01;;;;;;;8.45;7.65;;;;;;;16.44;76.05;99250.47;3630053;39;20347;-66
2021/06/03 04:35:30;;;;;;;7.97;7.28;;;;;;;16.45;75.76;99246.78;3629940;39;20026;-64
2021/06/03 04:37:57;;;;;;;8.95;8.15;;;;;;;16.49;76.06;99247.13;3620205;39;20062;-65
2021/06/03 04:40:25;;;;;;;7.38;6.43;;;;;;;16.50;76.18;99244.28;3620679;39;20066;-65
2021/06/03 04:42:52;;;;;;;9.07;8.27;;;;;;;16.64;75.77;99246.78;3629974;39;20079;-65
2021/06/03 04:45:22;;;;;;;6.85;6.35;;;;;;;16.65;75.60;99254.56;3629814;39;20330;-65
2021/06/03 04:47:49;;;;;;;8.15;7.35;;;;;;;16.64;75.61;99255.63;3629698;39;20127;-65
2021/06/03 04:50:19;;;;;;;8.65;7.85;;;;;;;16.64;75.68;99257.47;3620342;39;20403;-64
2021/06/03 04:52:48;;;;;;;9.05;8.25;;;;;;;16.66;75.64;99260.75;3629940;39;20038;-65
2021/06/03 04:55:21;;;;;;;8.60;7.78;;;;;;;16.70;76.04;99259.28;3630068;39;20053;-65
2021/06/03 04:57:50;;;;;;;7.75;7.10;;;;;;;16.85;75.76;99262.41;3621660;39;20054;-65
2021/06/03 05:00:22;;;;;;;8.75;7.85;;;;;;;16.89;75.45;99255.59;3634258;39;20054;-64
2021/06/03 05:02:49;;;;;;;8.30;7.60;;;;;;;17.03;75.13;99249.06;3623543;39;20331;-65
2021/06/03 05:05:17;;;;;;;9.50;7.68;;;;;;;17.15;75.08;99251.00;3633058;39;20054;-64
2021/06/03 05:07:46;;;;;;;8.35;7.53;;;;;;;17.23;74.93;99251.50;3634342;39;20062;-64
2021/06/03 05:10:16;;;;;;;7.97;7.38;;;;;;;17.25;74.61;99256.63;3634820;39;20042;-65
2021/06/03 05:12:47;;;;;;;8.43;7.43;;;;;;;17.24;74.47;99253.13;3635116;39;20279;-66
2021/06/03 05:15:18;;;;;;;;;;;;;;;17.27;75.17;99260.72;3624596;39;20053;-65
2021/06/03 05:17:47;;;;;;;7.40;6.80;;;;;;;17.36;74.13;99265.75;3632906;39;19938;-65
2021/06/03 05:20:16;;;;;;;8.00;7.30;;;;;;;17.38;74.39;99256.44;3622993;39;20391;-65
2021/06/03 05:22:44;;;;;;;7.18;6.55;;;;;;;17.40;74.42;99265.06;3621366;39;20366;-64
2021/06/03 05:25:13;;;;;;;8.57;7.88;;;;;;;17.43;74.41;99261.94;3630318;39;20419;-65
2021/06/03 05:27:42;;;;;;;9.38;8.48;;;;;;;17.43;73.93;99261.09;3629619;39;20103;-65
2021/06/03 05:30:12;;;;;;;7.93;7.10;;;;;;;17.44;73.83;99266.25;3629726;39;20083;-65
2021/06/03 05:32:40;;;;;;;9.68;7.35;;;;;;;17.51;73.85;99274.16;3629645;39;20082;-65
2021/06/03 05:35:10;;;;;;;7.85;7.03;;;;;;;17.56;73.21;99277.00;3629127;39;20022;-64
2021/06/03 05:37:37;;;;;;;8.00;7.30;;;;;;;17.52;73.51;99275.81;3629337;39;20071;-64
2021/06/03 05:40:06;;;;;;;9.43;8.07;;;;;;;17.54;73.17;99284.41;3630199;39;20054;-63
2021/06/03 05:42:34;;;;;;;8.07;7.05;;;;;;;17.61;72.85;99277.13;3620245;39;20339;-65
2021/06/03 05:45:07;;;;;;;9.10;8.23;;;;;;;17.66;73.04;99284.44;3629171;39;20086;-65
2021/06/03 05:47:35;;;;;;;8.40;7.70;;;;;;;17.71;73.16;99288.06;3629441;39;20383;-64
2021/06/03 05:50:03;;;;;;;8.57;7.78;;;;;;;17.76;72.77;99293.59;3629530;39;20058;-65
2021/06/03 05:52:30;;;;;;;9.20;7.82;;;;;;;17.82;72.78;99295.34;3629691;39;20357;-65
2021/06/03 05:54:58;;;;;;;8.07;7.38;;;;;;;17.91;72.81;99295.03;3629557;39;20343;-64
2021/06/03 05:57:25;;;;;;;7.85;7.15;;;;;;;17.95;72.89;99305.03;3629533;39;20055;-64
2021/06/03 05:59:52;;;;;;;7.63;6.93;;;;;;;18.05;72.70;99308.00;3620087;39;20075;-65
2021/06/03 06:02:28;;;;;;;6.82;6.22;;;;;;;18.13;71.80;99306.03;3629757;39;20057;-64
2021/06/03 06:07:46;;;;;;;12.27;8.38;;;;;;;18.34;71.92;99318.06;3618336;39;20054;-63
2021/06/03 06:10:13;;;;;;;7.85;6.63;;;;;;;18.41;71.61;99324.09;3629570;39;20062;-64
2021/06/03 06:12:40;;;;;;;9.07;7.85;;;;;;;18.52;71.24;99320.63;3629672;39;20086;-65
2021/06/03 06:15:08;;;;;;;7.40;6.70;;;;;;;18.56;71.56;99327.16;3630106;39;20079;-64
2021/06/03 06:17:37;;;;;;;8.25;7.47;;;;;;;18.68;71.06;99322.63;3630065;39;20054;-63
2021/06/03 06:20:05;;;;;;;8.48;7.68;;;;;;;18.77;70.72;99325.78;3635263;39;20045;-65
2021/06/03 06:22:33;;;;;;;7.63;6.90;;;;;;;18.88;69.75;99324.16;3635840;39;20379;-65
2021/06/03 06:25:03;;;;;;;8.63;7.93;;;;;;;18.96;70.35;99326.50;3634235;39;20099;-65
2021/06/03 06:27:30;;;;;;;8.63;7.78;;;;;;;19.04;70.04;99328.81;3634708;39;20084;-65
2021/06/03 06:29:58;;;;;;;6.95;6.35;;;;;;;19.15;69.87;99325.31;3635353;39;20051;-66
2021/06/03 06:32:25;;;;;;;5.95;5.35;;;;;;;19.29;68.81;99329.34;3634664;39;20042;-65
2021/06/03 06:34:54;;;;;;;6.47;5.88;;;;;;;19.44;68.61;99336.09;3635652;39;20402;-64
2021/06/03 06:37:21;;;;;;;6.93;6.40;;;;;;;19.56;68.12;99331.50;3634540;39;20091;-65
2021/06/03 06:39:49;;;;;;;7.97;6.15;;;;;;;19.60;67.67;99338.03;3633593;39;20046;-65
2021/06/03 06:42:16;;;;;;;8.80;7.90;;;;;;;19.68;67.61;99331.50;3633246;39;20047;-65
2021/06/03 06:44:43;;;;;;;6.32;5.72;;;;;;;19.82;67.59;99332.81;3632857;39;20379;-65
2021/06/03 06:47:10;;;;;;;6.97;6.32;;;;;;;19.92;67.04;99337.56;3633329;39;20054;-65
2021/06/03 06:49:38;;;;;;;7.50;6.88;;;;;;;20.02;67.22;99337.75;3632259;39;20050;-65
2021/06/03 06:52:07;;;;;;;7.00;6.00;;;;;;;20.11;66.65;99341.66;3634199;39;20062;-64
2021/06/03 06:54:34;;;;;;;5.57;5.07;;;;;;;20.18;66.57;99334.28;3633885;39;20050;-64
2021/06/03 06:57:01;;;;;;;7.07;6.38;;;;;;;20.39;65.90;99331.94;3621708;39;20066;-65
2021/06/03 06:59:29;;;;;;;8.02;6.78;;;;;;;20.54;65.34;99334.91;3631088;39;20023;-64
2021/06/03 07:01:56;;;;;;;8.05;6.60;;;;;;;20.66;64.56;99341.00;3630827;39;20122;-64
2021/06/03 07:04:24;;;;;;;6.38;5.72;;;;;;;20.67;64.26;99336.44;3621508;39;20046;-64
2021/06/03 07:06:51;;;;;;;6.55;5.38;;;;;;;20.75;65.17;99334.16;3631115;39;20075;-66
2021/06/03 07:09:19;;;;;;;6.15;5.35;;;;;;;20.90;65.24;99333.59;3620876;39;20057;-64
2021/06/03 07:11:47;;;;;;;5.85;4.55;;;;;;;21.03;64.46;99333.22;3630875;39;20054;-65
2021/06/03 07:14:14;;;;;;;5.88;4.40;;;;;;;21.12;63.92;99335.47;3622076;39;20062;-65
2021/06/03 07:16:42;;;;;;;5.32;4.30;;;;;;;21.19;64.35;99328.88;3632400;39;20049;-64
2021/06/03 07:19:09;;;;;;;5.05;4.55;;;;;;;21.30;63.67;99332.47;3630531;39;20067;-65
2021/06/03 07:21:37;;;;;;;6.20;4.60;;;;;;;21.38;63.39;99321.31;3630605;39;20046;-64
2021/06/03 07:24:05;;;;;;;4.70;4.22;;;;;;;21.30;63.09;99327.09;3630629;39;20392;-63
2021/06/03 07:26:33;;;;;;;6.35;4.75;;;;;;;21.37;63.27;99326.97;3630924;39;20279;-64
2021/06/03 07:29:04;;;;;;;6.07;4.35;;;;;;;21.31;62.29;99327.91;3630593;39;20134;-64
2021/06/03 07:31:34;;;;;;;4.05;3.63;;;;;;;21.20;62.38;99327.78;3630706;39;20067;-64
2021/06/03 07:34:03;;;;;;;5.75;4.20;;;;;;;21.22;61.94;99328.34;3630729;39;20031;-64
2021/06/03 07:36:30;;;;;;;6.07;3.72;;;;;;;21.10;62.23;99337.59;3630425;39;20069;-64
2021/06/03 07:38:58;;;;;;;5.60;4.80;;;;;;;21.03;62.63;99333.22;3630072;39;20046;-65
2021/06/03 07:41:25;;;;;;;7.18;5.43;;;;;;;20.99;62.12;99334.78;3630409;39;20042;-63
2021/06/03 07:43:54;;;;;;;4.15;3.75;;;;;;;21.05;62.13;99334.84;3630582;39;20049;-62
2021/06/03 07:46:21;;;;;;;4.50;4.10;;;;;;;21.13;61.96;99331.72;3620955;39;20054;-63
2021/06/03 07:48:49;;;;;;;5.07;3.90;;;;;;;21.18;61.60;99327.22;3630327;39;20053;-63
2021/06/03 07:51:16;;;;;;;5.32;3.95;;;;;;;21.12;61.80;99341.66;3630576;39;20078;-64
2021/06/03 07:53:43;;;;;;;4.95;4.10;;;;;;;21.07;61.54;99333.53;3630218;39;20387;-65
2021/06/03 07:56:11;;;;;;;6.57;4.55;;;;;;;21.07;61.79;99341.59;3630327;39;20321;-65
2021/06/03 07:58:38;;;;;;;4.50;4.03;;;;;;;20.97;61.87;99344.13;3619948;39;20043;-65
2021/06/03 08:01:07;;;;;;;6.10;4.20;;;;;;;20.98;62.12;99348.44;3630933;39;20043;-65
2021/06/03 08:03:34;;;;;;;4.57;4.15;;;;;;;21.07;61.94;99344.28;3620722;39;20382;-64
2021/06/03 08:06:02;;;;;;;4.75;4.22;;;;;;;21.15;61.66;99341.19;3630181;39;20030;-64
2021/06/03 08:08:34;;;;;;;4.32;3.92;;;;;;;21.24;61.67;99337.00;3630139;39;20038;-64
2021/06/03 08:11:02;;;;;;;5.13;3.97;;;;;;;21.37;61.37;99335.84;3630608;39;20135;-65
2021/06/03 08:13:30;;;;;;;5.15;4.65;;;;;;;21.45;61.16;99332.72;3632386;39;20490;-65
2021/06/03 08:15:57;;;;;;;5.38;4.15;;;;;;;21.50;61.15;99331.94;3634121;39;20050;-65
2021/06/03 08:18:26;;;;;;;5.13;4.63;;;;;;;21.44;60.64;99336.47;3634716;39;20054;-64
2021/06/03 08:20:57;;;;;;;9.38;7.60;;;;;;;21.39;60.75;99332.88;3633466;39;20141;-65
2021/06/03 08:23:27;;;;;;;9.65;8.65;;;;;;;21.49;60.54;99333.03;3636479;39;20039;-65
2021/06/03 08:25:56;;;;;;;6.10;4.82;;;;;;;21.49;60.65;99333.84;3630457;39;20042;-68
2021/06/03 08:28:24;;;;;;;4.63;4.22;;;;;;;21.66;60.83;99325.69;3620346;39;20030;-66
2021/06/03 08:30:52;;;;;;;5.22;4.47;;;;;;;21.92;60.00;99331.31;3630102;39;20050;-65
2021/06/03 08:33:20;;;;;;;5.05;4.35;;;;;;;21.98;59.91;99325.75;3629933;39;20050;-65
2021/06/03 08:35:48;;;;;;;5.93;4.05;;;;;;;22.08;59.33;99327.72;3629871;39;20042;-64
2021/06/03 08:38:16;;;;;;;7.30;5.57;;;;;;;22.15;59.79;99332.94;3629796;39;20414;-65
2021/06/03 08:40:46;;;;;;;5.80;4.95;;;;;;;22.37;59.92;99335.53;3630083;39;20050;-65
2021/06/03 08:43:14;;;;;;;4.93;4.00;;;;;;;22.57;58.90;99333.00;3630373;39;20311;-65
2021/06/03 08:45:43;;;;;;;4.80;4.20;;;;;;;22.82;58.51;99327.00;3630162;39;20380;-65
2021/06/03 08:48:11;;;;;;;4.60;4.10;;;;;;;23.11;57.36;99327.47;3629761;39;20422;-65
2021/06/03 08:50:44;;;;;;;6.88;5.72;;;;;;;23.14;56.47;99328.81;3620678;39;20375;-65
2021/06/03 08:53:14;;;;;;;6.00;4.32;;;;;;;23.09;56.97;99326.09;3629933;39;20050;-65
2021/06/03 08:58:28;;;;;;;4.30;3.85;;;;;;;23.06;56.56;99327.44;3629702;39;20086;-65
2021/06/03 09:00:57;;;;;;;6.20;4.35;;;;;;;23.04;56.68;99331.47;3629790;39;20047;-65
2021/06/03 09:03:27;;;;;;;4.53;3.50;;;;;;;23.08;56.25;99333.38;3629836;39;20395;-65
2021/06/03 09:05:55;;;;;;;7.50;3.70;;;;;;;23.05;56.29;99325.81;3629570;39;20367;-63
2021/06/03 09:08:26;;;;;;;6.38;5.68;;;;;;;23.18;56.32;99330.72;3629593;39;20054;-65
2021/06/03 09:10:55;;;;;;;5.25;4.18;;;;;;;23.38;55.91;99327.31;3629786;39;20053;-64
2021/06/03 09:13:26;;;;;;;4.88;4.18;;;;;;;23.65;55.26;99326.34;3620136;39;20082;-64
2021/06/03 09:15:55;;;;;;;6.70;5.97;;;;;;;23.94;54.09;99324.00;3629622;39;20082;-65
2021/06/03 09:18:28;;;;;;;8.48;7.68;;;;;;;24.22;53.51;99328.91;3619963;39;20050;-64
2021/06/03 09:20:56;;;;;;;9.05;5.90;;;;;;;24.43;52.55;99323.53;3629804;39;20090;-65
2021/06/03 09:23:28;;;;;;;3.95;3.55;;;;;;;24.44;51.76;99323.25;3629813;39;20443;-65
2021/06/03 09:25:56;;;;;;;5.63;4.10;;;;;;;24.57;52.01;99318.38;3629695;39;20387;-64
2021/06/03 09:28:29;;;;;;;5.80;5.20;;;;;;;24.69;51.62;99321.59;3629337;39;20046;-65
2021/06/03 09:31:09;;;;;;;6.20;3.30;;;;;;;24.72;51.38;99323.78;3629894;39;20047;-65
2021/06/03 09:33:51;;;;;;;5.30;3.50;;;;;;;24.80;50.70;99325.94;3620453;39;20069;-64
2021/06/03 09:36:25;;;;;;;4.67;3.80;;;;;;;24.93;49.85;99324.53;3620093;39;20135;-64
2021/06/03 09:39:01;;;;;;;6.22;5.30;;;;;;;25.28;49.21;99320.16;3629228;39;20070;-65
2021/06/03 09:41:31;;;;;;;3.42;3.13;;;;;;;25.63;48.19;99311.84;3629593;39;20071;-65
2021/06/03 09:44:07;;;;;;;8.73;5.05;;;;;;;25.86;47.61;99313.09;3629530;39;20042;-64
2021/06/03 09:46:37;;;;;;;5.57;3.00;;;;;;;25.90;47.53;99314.16;3629338;39;20051;-65
2021/06/03 09:49:06;;;;;;;3.83;2.97;;;;;;;25.73;47.33;99315.59;3629419;39;20050;-64
2021/06/03 09:51:37;;;;;;;6.43;3.08;;;;;;;25.29;48.00;99319.06;3620045;39;20082;-64
2021/06/03 09:54:07;;;;;;;6.53;3.13;;;;;;;25.03;49.05;99323.72;3629847;39;20083;-64
2021/06/03 09:56:36;;;;;;;4.80;3.10;;;;;;;24.88;49.38;99322.66;3629751;39;20058;-65
2021/06/03 09:59:06;;;;;;;4.88;3.00;;;;;;;24.63;49.05;99325.41;3629176;39;20054;-65
2021/06/03 10:01:41;;;;;;;4.38;3.03;;;;;;;24.58;49.73;99320.03;3629485;39;20322;-65
2021/06/03 10:04:10;;;;;;;3.75;2.65;;;;;;;24.49;49.79;99316.22;3629704;39;20091;-66
2021/06/03 10:06:57;;;;;;;3.78;3.13;;;;;;;24.68;50.12;99320.81;3629356;39;20050;-64
2021/06/03 10:09:56;;;;;;;5.00;3.22;;;;;;;24.90;49.90;99304.28;3629436;39;20402;-63
2021/06/03 10:12:43;;;;;;;6.38;3.90;;;;;;;25.08;49.60;99308.28;3629901;39;20054;-63
2021/06/03 10:15:34;;;;;;;3.08;2.78;;;;;;;25.25;48.99;99305.28;3630994;39;20327;-64
2021/06/03 10:18:04;;;;;;;3.40;2.65;;;;;;;25.42;47.00;99296.81;3631836;39;20053;-63
2021/06/03 10:20:36;;;;;;;6.53;4.32;;;;;;;25.53;47.43;99300.28;3632928;39;20050;-64
2021/06/03 10:23:05;;;;;;;4.03;2.53;;;;;;;25.49;46.02;99301.94;3633489;39;20087;-63
2021/06/03 10:25:35;;;;;;;3.40;2.63;;;;;;;25.54;46.68;99297.28;3633699;39;20047;-63
2021/06/03 10:28:05;;;;;;;3.33;2.75;;;;;;;25.60;46.57;99289.97;3632464;39;20035;-64
2021/06/03 10:30:36;;;;;;;5.40;4.82;;;;;;;25.85;46.91;99287.13;3634014;39;20073;-64
2021/06/03 10:33:10;;;;;;;3.88;2.40;;;;;;;26.08;46.00;99279.38;3633544;39;20314;-66
2021/06/03 10:35:39;;;;;;;3.45;3.15;;;;;;;26.44;45.16;99282.59;3634687;39;20403;-64
2021/06/03 10:38:09;;;;;;;3.50;3.10;;;;;;;26.66;44.23;99282.94;3624519;39;20069;-65
2021/06/03 10:40:39;;;;;;;3.50;3.05;;;;;;;26.81;44.16;99287.38;3632948;39;20050;-65
2021/06/03 10:43:07;;;;;;;3.22;3.00;;;;;;;27.05;43.99;99284.69;3622748;39;20046;-65
2021/06/03 10:45:37;;;;;;;6.30;4.07;;;;;;;27.24;44.13;99282.06;3622824;39;20042;-64
2021/06/03 10:48:06;;;;;;;3.05;2.50;;;;;;;27.40;43.44;99272.63;3632380;39;20059;-65
2021/06/03 10:50:39;;;;;;;3.47;2.83;;;;;;;27.66;42.88;99272.25;3622406;39;20059;-64
2021/06/03 10:53:16;;;;;;;5.75;2.20;;;;;;;27.76;41.71;99274.88;3622175;39;20422;-64
2021/06/03 10:55:47;;;;;;;3.17;2.10;;;;;;;27.56;41.82;99270.50;3630740;39;20055;-64
2021/06/03 10:58:15;;;;;;;2.30;2.10;;;;;;;27.31;41.44;99262.69;3629862;39;20076;-64
2021/06/03 11:00:43;;;;;;;4.32;2.55;;;;;;;27.13;42.70;99278.66;3629764;39;20388;-64
2021/06/03 11:03:12;;;;;;;3.35;3.05;;;;;;;26.93;44.54;99276.16;3629415;39;20422;-64
2021/06/03 11:05:42;;;;;;;3.65;3.35;;;;;;;26.89;45.13;99266.97;3621034;39;20057;-63
2021/06/03 11:08:28;;;;;;;5.22;3.30;;;;;;;26.93;45.55;99259.88;3629479;39;20079;-64
2021/06/03 11:11:28;;;;;;;4.32;3.22;;;;;;;27.02;45.41;99262.75;3629141;39;20487;-64
2021/06/03 11:14:08;;;;;;;4.47;3.00;;;;;;;26.93;45.10;99268.00;3628881;39;20058;-63
2021/06/03 11:16:46;;;;;;;3.67;3.38;;;;;;;26.83;44.57;99262.72;3628855;39;20047;-65
2021/06/03 11:19:14;;;;;;;4.93;3.20;;;;;;;26.73;45.97;99260.91;3628792;39;20046;-64
2021/06/03 11:22:03;;;;;;;7.88;3.40;;;;;;;27.03;46.52;99267.09;3629361;39;20406;-64
2021/06/03 11:24:48;;;;;;;4.85;3.22;;;;;;;27.10;45.79;99262.94;3629191;39;20070;-65
2021/06/03 11:27:22;;;;;;;7.00;3.42;;;;;;;27.08;45.59;99262.41;3628583;39;20035;-64
2021/06/03 11:30:01;;;;;;;4.80;2.90;;;;;;;27.03;44.56;99265.19;3619902;39;20054;-63
2021/06/03 11:32:35;;;;;;;4.25;2.80;;;;;;;26.95;45.47;99265.81;3631622;39;20050;-65
2021/06/03 11:35:07;;;;;;;4.05;3.53;;;;;;;26.78;45.74;99265.47;3623654;39;20441;-65
2021/06/03 11:37:48;;;;;;;3.50;2.95;;;;;;;26.67;46.07;99259.34;3633096;39;20417;-64
2021/06/03 11:40:19;;;;;;;4.82;3.47;;;;;;;26.49;46.66;99257.34;3632223;39;20090;-64
2021/06/03 11:42:50;;;;;;;6.03;3.60;;;;;;;26.29;47.20;99269.16;3621719;39;20027;-64
2021/06/03 11:45:41;;;;;;;3.63;3.00;;;;;;;26.25;47.16;99257.28;3630977;39;20082;-64
2021/06/03 11:48:14;;;;;;;3.22;2.90;;;;;;;26.08;48.27;99255.78;3630557;39;20038;-64
2021/06/03 11:50:54;;;;;;;6.13;3.10;;;;;;;26.16;48.35;99265.22;3621029;39;20379;-64